Time;durP1;ratioP1;P1;durP2;ratioP2;P2;SDS_P1;SDS_P2;PMS_P1;PMS_P2;Temp;Humidity;BMP_temperature;BMP_pressure;BME280_temperature;BME280_humidity;BME280_pressure;Samples;Min_cycle;Max_cycle;Signal;HPM_P1;HPM_P2
2023/06/12 00:01:19;;;;;;;1.50;1.40;;;18.30;99.90;;;;;;5041477;28;20931;-69
2023/06/12 00:03:47;;;;;;;1.60;1.50;;;18.30;99.90;;;;;;5044045;28;20233;-70
2023/06/12 00:06:17;;;;;;;1.63;1.52;;;18.30;99.90;;;;;;5043572;28;20270;-70
2023/06/12 00:08:45;;;;;;;1.73;1.63;;;18.20;99.90;;;;;;5026588;28;20254;-70
2023/06/12 00:11:13;;;;;;;1.60;1.50;;;18.20;99.90;;;;;;5042674;28;20215;-69
2023/06/12 00:13:41;;;;;;;1.65;1.55;;;18.10;99.90;;;;;;5044324;28;20226;-69
2023/06/12 00:16:10;;;;;;;1.58;1.48;;;18.10;99.90;;;;;;5042844;28;20207;-70
2023/06/12 00:18:39;;;;;;;1.63;1.52;;;18.10;99.90;;;;;;5042803;28;20677;-70
2023/06/12 00:21:09;;;;;;;1.50;1.40;;;18.10;99.90;;;;;;5041129;28;20227;-69
2023/06/12 00:23:37;;;;;;;1.92;1.83;;;18.10;99.90;;;;;;5041422;28;20280;-70
2023/06/12 00:26:04;;;;;;;1.80;1.70;;;18.10;99.90;;;;;;5044213;28;20891;-70
2023/06/12 00:28:31;;;;;;;1.38;1.33;;;18.10;99.90;;;;;;5043058;28;20207;-70
2023/06/12 00:30:59;;;;;;;1.90;1.80;;;18.00;99.90;;;;;;5039349;28;20243;-70
2023/06/12 00:33:28;;;;;;;1.80;1.70;;;18.10;99.90;;;;;;5041395;28;20206;-69
2023/06/12 00:35:55;;;;;;;1.63;1.52;;;18.00;99.90;;;;;;5043535;28;20221;-70
2023/06/12 00:38:23;;;;;;;1.70;1.60;;;18.00;99.90;;;;;;5022739;28;20567;-70
2023/06/12 00:40:50;;;;;;;1.65;1.55;;;18.00;99.90;;;;;;5024448;28;20635;-70
2023/06/12 00:43:18;;;;;;;1.70;1.60;;;17.90;99.90;;;;;;5043967;28;20226;-70
2023/06/12 00:45:47;;;;;;;1.80;1.70;;;17.90;99.90;;;;;;5038420;28;20920;-70
2023/06/12 00:48:14;;;;;;;1.52;1.42;;;17.90;99.90;;;;;;5042463;28;20221;-70
2023/06/12 00:50:44;;;;;;;1.67;1.58;;;17.90;99.90;;;;;;5042920;28;20199;-69
2023/06/12 00:53:12;;;;;;;1.60;1.50;;;17.80;99.90;;;;;;5043487;28;20360;-69
2023/06/12 00:55:40;;;;;;;1.48;1.38;;;17.90;99.90;;;;;;5019939;28;20250;-70
2023/06/12 00:58:07;;;;;;;1.60;1.50;;;17.80;99.90;;;;;;5043143;28;20260;-69
2023/06/12 01:00:38;;;;;;;1.58;1.48;;;17.90;99.90;;;;;;5037268;28;20210;-70
2023/06/12 01:03:08;;;;;;;1.95;1.85;;;17.90;99.90;;;;;;5039929;28;20202;-70
2023/06/12 01:05:38;;;;;;;1.80;1.70;;;17.90;99.90;;;;;;5038603;28;20255;-69
2023/06/12 01:08:29;;;;;;;1.73;1.63;;;17.90;99.90;;;;;;5040539;28;20287;-69
2023/06/12 01:11:02;;;;;;;1.98;1.88;;;18.00;99.90;;;;;;5036923;28;20302;-69
2023/06/12 01:13:29;;;;;;;2.28;1.83;;;18.00;99.90;;;;;;5037079;28;20200;-69
2023/06/12 01:15:57;;;;;;;2.20;2.10;;;18.10;99.90;;;;;;5037257;28;20292;-69
2023/06/12 01:18:24;;;;;;;1.80;1.70;;;18.10;99.90;;;;;;5026145;28;20286;-69
2023/06/12 01:20:55;;;;;;;2.22;2.13;;;18.20;99.90;;;;;;5035841;28;20912;-69
2023/06/12 01:23:48;;;;;;;2.00;1.90;;;18.20;99.90;;;;;;5042000;28;20955;-69
2023/06/12 01:26:29;;;;;;;1.90;1.80;;;18.10;99.90;;;;;;5037337;28;20203;-69
2023/06/12 01:29:34;;;;;;;2.08;1.98;;;18.10;99.90;;;;;;5039438;28;20760;-69
2023/06/12 01:32:05;;;;;;;2.40;2.20;;;18.10;99.90;;;;;;5041143;28;20298;-70
2023/06/12 01:34:38;;;;;;;1.90;1.80;;;18.10;99.90;;;;;;5036720;28;20219;-69
2023/06/12 01:37:14;;;;;;;2.25;2.15;;;18.10;99.90;;;;;;5041007;28;20282;-69
2023/06/12 01:39:45;;;;;;;2.03;1.92;;;18.10;99.90;;;;;;5039060;28;20195;-69
2023/06/12 01:42:13;;;;;;;2.15;2.05;;;18.10;99.90;;;;;;5041455;28;20253;-69
2023/06/12 01:44:40;;;;;;;2.20;2.10;;;18.10;99.90;;;;;;5045272;28;20305;-69
2023/06/12 01:47:09;;;;;;;2.38;1.90;;;18.00;99.90;;;;;;5032549;28;20410;-69
2023/06/12 01:49:36;;;;;;;1.90;1.80;;;17.90;99.90;;;;;;5044627;28;20249;-69
2023/06/12 01:52:03;;;;;;;2.40;1.80;;;17.90;99.90;;;;;;5047860;28;20270;-69
2023/06/12 01:54:33;;;;;;;1.80;1.70;;;17.90;99.90;;;;;;5044030;28;20404;-70
2023/06/12 01:57:01;;;;;;;1.90;1.80;;;17.90;99.90;;;;;;5024295;28;20207;-69
2023/06/12 01:59:28;;;;;;;2.00;1.90;;;17.90;99.90;;;;;;5040823;28;20212;-69
2023/06/12 02:01:55;;;;;;;1.80;1.70;;;17.90;99.90;;;;;;5043267;28;20226;-69
2023/06/12 02:04:23;;;;;;;2.85;1.88;;;17.90;99.90;;;;;;5041898;28;20258;-69
2023/06/12 02:06:51;;;;;;;1.98;1.88;;;17.90;99.90;;;;;;5041180;28;20316;-69
2023/06/12 02:09:19;;;;;;;1.95;1.85;;;17.90;99.90;;;;;;5040191;28;20226;-69
2023/06/12 02:11:46;;;;;;;1.70;1.60;;;17.70;99.90;;;;;;5039136;28;20210;-69
2023/06/12 02:14:13;;;;;;;1.88;1.77;;;17.80;99.90;;;;;;5042122;28;20326;-69
2023/06/12 02:16:40;;;;;;;2.10;2.00;;;17.80;99.90;;;;;;5041266;28;20233;-69
2023/06/12 02:19:07;;;;;;;1.90;1.80;;;17.80;99.90;;;;;;5039990;28;20261;-69
2023/06/12 02:21:36;;;;;;;1.98;1.88;;;17.80;99.90;;;;;;5040196;28;20882;-69
2023/06/12 02:24:03;;;;;;;2.00;1.80;;;17.70;99.90;;;;;;5045402;28;20306;-69
2023/06/12 02:26:30;;;;;;;2.50;2.20;;;17.80;99.90;;;;;;5027495;28;20322;-69
2023/06/12 02:29:08;;;;;;;2.08;1.88;;;17.80;99.90;;;;;;5040748;28;20223;-69
2023/06/12 02:31:35;;;;;;;2.00;1.90;;;17.70;99.90;;;;;;5039832;28;20254;-69
2023/06/12 02:34:02;;;;;;;3.05;2.05;;;17.70;99.90;;;;;;5021168;28;20284;-69
2023/06/12 02:36:30;;;;;;;2.55;1.80;;;17.70;99.90;;;;;;5043873;28;20638;-69
2023/06/12 02:38:58;;;;;;;1.80;1.70;;;17.70;99.90;;;;;;5039188;28;20274;-69
2023/06/12 02:41:26;;;;;;;2.17;2.08;;;17.70;99.90;;;;;;5037020;28;20258;-69
2023/06/12 02:43:53;;;;;;;2.47;1.92;;;17.70;99.90;;;;;;5041253;28;20309;-69
2023/06/12 02:46:20;;;;;;;2.10;2.00;;;17.70;99.90;;;;;;5039234;28;20429;-69
2023/06/12 02:48:47;;;;;;;1.98;1.83;;;17.70;99.90;;;;;;5019646;28;20230;-70
2023/06/12 02:51:14;;;;;;;2.00;1.85;;;17.70;99.90;;;;;;5023902;28;20310;-70
2023/06/12 02:53:41;;;;;;;2.00;1.77;;;17.60;99.90;;;;;;5044387;28;20227;-70
2023/06/12 02:56:10;;;;;;;1.90;1.80;;;17.60;99.90;;;;;;5040506;28;20278;-69
2023/06/12 02:58:39;;;;;;;2.50;1.80;;;17.60;99.90;;;;;;5041413;28;20249;-69
2023/06/12 03:01:07;;;;;;;2.33;2.10;;;17.60;99.90;;;;;;5008232;28;20202;-69
2023/06/12 03:03:35;;;;;;;1.67;1.58;;;17.50;99.90;;;;;;5042370;28;20223;-70
2023/06/12 03:06:03;;;;;;;1.80;1.70;;;17.50;99.90;;;;;;5041820;28;20292;-69
2023/06/12 03:08:30;;;;;;;2.42;2.22;;;17.50;99.90;;;;;;5043025;28;20199;-70
2023/06/12 03:10:58;;;;;;;2.08;1.90;;;17.50;99.90;;;;;;5041418;28;20207;-70
2023/06/12 03:13:27;;;;;;;1.80;1.70;;;17.50;99.90;;;;;;5038910;28;20308;-70
2023/06/12 03:15:55;;;;;;;2.00;1.90;;;17.50;99.90;;;;;;5041063;28;20754;-69
2023/06/12 03:18:22;;;;;;;1.98;1.88;;;17.50;99.90;;;;;;5040682;28;20215;-70
2023/06/12 03:20:49;;;;;;;1.73;1.63;;;17.50;99.90;;;;;;5040072;28;20650;-70
2023/06/12 03:23:16;;;;;;;1.88;1.77;;;17.40;99.90;;;;;;5043225;28;20759;-70
2023/06/12 03:25:43;;;;;;;1.92;1.83;;;17.40;99.90;;;;;;5043243;28;20203;-68
2023/06/12 03:28:11;;;;;;;2.05;1.88;;;17.50;99.90;;;;;;5038373;28;20203;-70
2023/06/12 03:30:39;;;;;;;2.05;1.95;;;17.40;99.90;;;;;;5034318;28;20756;-70
2023/06/12 03:33:07;;;;;;;1.83;1.73;;;17.40;99.90;;;;;;5035322;28;20536;-69
2023/06/12 03:35:34;;;;;;;2.17;2.05;;;17.40;99.90;;;;;;5035141;28;20234;-69
2023/06/12 03:38:01;;;;;;;3.05;1.85;;;17.40;99.90;;;;;;5043765;28;20227;-69
2023/06/12 03:40:28;;;;;;;2.20;2.08;;;17.40;99.90;;;;;;5006992;28;20203;-69
2023/06/12 03:42:55;;;;;;;2.00;1.90;;;17.40;99.90;;;;;;5041037;28;20202;-69
2023/06/12 03:45:22;;;;;;;1.80;1.70;;;17.40;99.90;;;;;;5041933;28;20657;-69
2023/06/12 03:47:51;;;;;;;1.95;1.85;;;17.40;99.90;;;;;;5043215;28;20253;-69
2023/06/12 03:50:19;;;;;;;1.88;1.77;;;17.50;99.90;;;;;;5038090;28;20287;-69
2023/06/12 03:52:46;;;;;;;2.20;2.10;;;17.50;99.90;;;;;;5041829;28;20210;-70
2023/06/12 03:55:13;;;;;;;2.00;1.90;;;17.60;99.90;;;;;;5037946;28;20466;-70
2023/06/12 03:57:41;;;;;;;2.35;2.15;;;17.60;99.90;;;;;;5039232;28;20291;-70
2023/06/12 04:00:09;;;;;;;1.70;1.60;;;17.50;99.90;;;;;;5043200;28;20253;-70
2023/06/12 04:02:37;;;;;;;2.05;1.95;;;17.60;99.90;;;;;;5023766;28;20730;-70
2023/06/12 04:05:08;;;;;;;2.50;2.28;;;17.60;99.90;;;;;;5040574;28;20234;-70
2023/06/12 04:07:36;;;;;;;2.00;1.90;;;17.70;99.90;;;;;;5038875;28;20709;-69
2023/06/12 04:10:03;;;;;;;2.10;2.00;;;17.70;99.90;;;;;;5019295;28;20294;-70
2023/06/12 04:12:31;;;;;;;1.98;1.88;;;17.70;99.90;;;;;;5037837;28;20663;-70
2023/06/12 04:14:58;;;;;;;2.00;1.90;;;17.80;99.90;;;;;;5036739;28;20219;-70
2023/06/12 04:17:25;;;;;;;1.90;1.80;;;17.80;99.90;;;;;;5039399;28;20756;-69
2023/06/12 04:19:52;;;;;;;2.75;1.98;;;17.90;99.90;;;;;;5038784;28;20296;-69
2023/06/12 04:22:22;;;;;;;2.25;2.05;;;18.00;99.90;;;;;;5021683;28;20190;-69
2023/06/12 04:24:49;;;;;;;3.42;2.08;;;18.10;99.90;;;;;;5024197;28;20219;-69
2023/06/12 04:27:16;;;;;;;2.03;1.92;;;18.10;99.90;;;;;;5039165;28;20211;-69
2023/06/12 04:29:45;;;;;;;1.90;1.80;;;18.10;99.90;;;;;;5038251;28;20668;-69
2023/06/12 04:32:13;;;;;;;1.98;1.88;;;18.20;99.90;;;;;;5032030;28;20229;-68
2023/06/12 04:34:41;;;;;;;2.00;1.90;;;18.20;99.90;;;;;;5031740;28;20907;-69
2023/06/12 04:37:11;;;;;;;1.70;1.60;;;18.30;99.90;;;;;;5035946;28;20505;-69
2023/06/12 04:39:39;;;;;;;2.55;2.03;;;18.30;99.90;;;;;;5034931;28;20290;-68
2023/06/12 04:42:08;;;;;;;2.00;1.90;;;18.40;99.90;;;;;;5040937;28;20238;-69
2023/06/12 04:44:39;;;;;;;2.22;2.03;;;18.40;99.90;;;;;;5037646;28;20230;-69
2023/06/12 04:47:08;;;;;;;2.20;2.00;;;18.40;99.90;;;;;;5024029;28;20695;-69
2023/06/12 04:49:35;;;;;;;3.13;2.00;;;18.40;99.90;;;;;;5040240;28;20206;-69
2023/06/12 04:52:03;;;;;;;1.73;1.58;;;18.50;99.90;;;;;;5037154;28;20310;-69
2023/06/12 04:54:35;;;;;;;1.85;1.75;;;18.60;99.90;;;;;;5036987;28;20250;-69
2023/06/12 04:57:07;;;;;;;1.92;1.83;;;18.60;99.90;;;;;;5037851;28;20800;-69
2023/06/12 04:59:38;;;;;;;1.92;1.83;;;18.50;99.90;;;;;;5035017;28;20214;-69
2023/06/12 05:02:07;;;;;;;2.63;2.15;;;18.60;99.90;;;;;;5036361;28;20234;-69
2023/06/12 05:04:35;;;;;;;2.47;2.28;;;18.60;99.90;;;;;;5033081;28;20227;-69
2023/06/12 05:07:04;;;;;;;2.35;1.90;;;18.50;99.90;;;;;;5038598;28;20203;-69
2023/06/12 05:09:32;;;;;;;2.13;2.03;;;18.40;99.90;;;;;;5030601;28;20231;-69
2023/06/12 05:12:01;;;;;;;2.40;2.20;;;18.40;99.90;;;;;;5039303;28;20246;-69
2023/06/12 05:14:30;;;;;;;2.92;2.20;;;18.40;99.90;;;;;;5036758;28;20276;-69
2023/06/12 05:16:58;;;;;;;2.17;2.08;;;18.30;99.90;;;;;;5036811;28;20203;-70
2023/06/12 05:19:25;;;;;;;2.20;2.00;;;18.30;99.90;;;;;;5038575;28;20204;-69
2023/06/12 05:21:52;;;;;;;2.42;2.22;;;18.50;99.90;;;;;;5041976;28;20720;-69
2023/06/12 05:24:20;;;;;;;2.33;2.17;;;18.60;99.90;;;;;;5037646;28;20254;-69
2023/06/12 05:26:47;;;;;;;2.45;2.17;;;18.80;99.90;;;;;;5034790;28;20209;-75
2023/06/12 05:29:14;;;;;;;2.30;2.10;;;18.90;99.90;;;;;;5032826;28;20293;-77
2023/06/12 05:31:43;;;;;;;2.10;2.00;;;18.90;99.90;;;;;;5037593;28;20286;-76
2023/06/12 05:34:10;;;;;;;2.53;2.30;;;18.90;99.90;;;;;;5034402;28;20261;-70
2023/06/12 05:36:38;;;;;;;3.17;2.67;;;18.70;99.90;;;;;;5036076;28;20720;-70
2023/06/12 05:39:05;;;;;;;2.60;2.40;;;18.60;99.90;;;;;;5037862;28;20207;-70
2023/06/12 05:41:33;;;;;;;3.10;2.72;;;18.50;99.90;;;;;;5023291;28;20202;-70
2023/06/12 05:44:00;;;;;;;2.65;2.45;;;18.60;99.90;;;;;;5040096;28;20315;-70
2023/06/12 05:46:27;;;;;;;2.75;2.45;;;18.80;99.90;;;;;;5032626;28;20231;-70
2023/06/12 05:48:57;;;;;;;2.67;2.47;;;18.90;99.90;;;;;;5037020;28;20268;-70
2023/06/12 05:51:27;;;;;;;2.40;2.20;;;19.00;99.90;;;;;;5037071;28;20375;-70
2023/06/12 05:53:54;;;;;;;4.20;2.85;;;19.10;99.90;;;;;;5033234;28;20280;-70
2023/06/12 05:56:22;;;;;;;4.93;2.33;;;19.10;99.90;;;;;;5038498;28;20234;-71
2023/06/12 05:58:49;;;;;;;3.05;2.80;;;19.20;99.90;;;;;;5042534;28;20214;-71
2023/06/12 06:01:21;;;;;;;3.13;2.70;;;19.20;99.90;;;;;;5041322;28;20736;-71
2023/06/12 06:03:48;;;;;;;2.90;2.70;;;19.20;99.90;;;;;;5034918;28;20223;-71
2023/06/12 06:06:17;;;;;;;2.72;2.53;;;19.20;99.90;;;;;;5037339;28;20262;-71
2023/06/12 06:08:46;;;;;;;3.33;3.03;;;19.20;99.90;;;;;;5035681;28;20223;-69
2023/06/12 06:11:13;;;;;;;4.10;2.90;;;19.20;99.90;;;;;;5019105;28;20203;-69
2023/06/12 06:13:43;;;;;;;3.03;2.80;;;19.20;99.90;;;;;;5030538;28;20247;-69
2023/06/12 06:16:11;;;;;;;3.35;2.97;;;19.30;99.90;;;;;;5031443;28;20381;-69
2023/06/12 06:18:38;;;;;;;2.30;2.20;;;19.30;99.90;;;;;;5033831;28;20520;-69
2023/06/12 06:21:05;;;;;;;2.47;2.28;;;19.40;99.90;;;;;;5033051;28;20207;-69
2023/06/12 06:23:34;;;;;;;2.95;2.75;;;19.40;99.90;;;;;;5032556;28;20203;-69
2023/06/12 06:26:03;;;;;;;2.20;2.10;;;19.50;99.90;;;;;;5029444;28;20635;-69
2023/06/12 06:28:30;;;;;;;2.22;2.13;;;19.70;99.90;;;;;;5034288;28;20229;-69
2023/06/12 06:30:59;;;;;;;3.28;2.30;;;20.00;99.90;;;;;;5032285;28;20869;-69
2023/06/12 06:33:26;;;;;;;2.55;2.35;;;20.10;99.90;;;;;;5036295;28;20251;-69
2023/06/12 06:35:54;;;;;;;2.17;2.08;;;20.20;99.90;;;;;;5035389;28;20210;-69
2023/06/12 06:38:24;;;;;;;2.33;2.13;;;20.20;99.90;;;;;;5035997;28;20360;-70
2023/06/12 06:40:53;;;;;;;2.35;2.15;;;20.40;99.90;;;;;;5035837;28;20280;-70
2023/06/12 06:43:20;;;;;;;2.55;2.35;;;20.60;99.90;;;;;;5032168;28;20519;-71
2023/06/12 06:45:47;;;;;;;3.00;2.47;;;20.70;99.90;;;;;;5039466;28;20264;-72
2023/06/12 06:48:15;;;;;;;2.63;2.42;;;20.80;99.90;;;;;;5022294;28;20277;-70
2023/06/12 06:50:43;;;;;;;3.33;2.50;;;20.50;99.90;;;;;;5020801;28;20626;-70
2023/06/12 06:53:11;;;;;;;3.20;3.00;;;20.20;99.90;;;;;;5034171;28;20254;-70
2023/06/12 06:55:42;;;;;;;2.80;2.55;;;20.10;99.90;;;;;;5032538;28;20360;-69
2023/06/12 06:58:10;;;;;;;2.63;2.42;;;20.30;99.90;;;;;;5033725;28;20852;-69
2023/06/12 07:00:37;;;;;;;3.33;2.72;;;20.50;99.90;;;;;;5036681;28;20691;-70
2023/06/12 07:03:05;;;;;;;2.83;2.63;;;20.50;99.90;;;;;;5034092;28;20290;-70
2023/06/12 07:05:32;;;;;;;2.80;2.60;;;20.60;99.90;;;;;;5034061;28;20317;-70
2023/06/12 07:07:59;;;;;;;4.35;2.53;;;20.80;99.90;;;;;;5038427;28;20614;-71
2023/06/12 07:10:26;;;;;;;3.20;2.90;;;20.90;99.90;;;;;;5032335;28;20734;-70
2023/06/12 07:12:56;;;;;;;3.50;2.58;;;21.00;99.90;;;;;;5034725;28;20246;-71
2023/06/12 07:15:26;;;;;;;2.55;2.35;;;21.10;99.90;;;;;;5034821;28;20961;-70
2023/06/12 07:17:53;;;;;;;2.70;2.50;;;21.20;99.90;;;;;;5016724;28;20214;-70
2023/06/12 07:20:20;;;;;;;2.75;2.53;;;21.30;99.90;;;;;;5042468;28;20203;-71
2023/06/12 07:22:48;;;;;;;2.60;2.40;;;21.50;99.90;;;;;;5029487;28;20235;-71
2023/06/12 07:25:15;;;;;;;3.15;2.70;;;21.60;99.90;;;;;;5029942;28;20263;-71
2023/06/12 07:27:42;;;;;;;2.60;2.40;;;21.70;99.90;;;;;;5035258;28;20314;-71
2023/06/12 07:30:11;;;;;;;2.50;2.30;;;21.80;99.90;;;;;;5035040;28;20226;-69
2023/06/12 07:32:40;;;;;;;3.42;2.70;;;21.70;99.90;;;;;;5036571;28;20253;-70
2023/06/12 07:35:07;;;;;;;2.90;2.70;;;21.70;99.90;;;;;;5066664;22;20232;-79
2023/06/12 07:37:36;;;;;;;3.38;2.42;;;21.60;99.90;;;;;;5050714;28;20301;-79
2023/06/12 07:40:07;;;;;;;3.83;2.50;;;21.60;99.90;;;;;;5049254;28;20235;-76
2023/06/12 07:42:35;;;;;;;2.60;2.40;;;21.80;99.90;;;;;;5050538;28;20210;-77
2023/06/12 07:45:02;;;;;;;2.90;2.70;;;22.00;99.90;;;;;;5049647;28;20283;-77
2023/06/12 07:47:29;;;;;;;2.75;2.55;;;22.30;99.90;;;;;;5051590;28;20253;-77
2023/06/12 07:49:58;;;;;;;3.00;2.70;;;22.30;99.90;;;;;;5051002;28;20253;-77
2023/06/12 07:52:24;;;;;;;2.53;2.33;;;22.40;99.90;;;;;;5052463;28;20290;-77
2023/06/12 07:54:51;;;;;;;3.03;2.83;;;22.40;99.90;;;;;;5057452;28;20234;-78
2023/06/12 07:57:18;;;;;;;2.80;2.60;;;22.40;99.90;;;;;;5052080;28;20277;-77
2023/06/12 07:59:46;;;;;;;3.38;2.65;;;22.40;99.90;;;;;;5055517;28;20206;-76
2023/06/12 08:02:13;;;;;;;2.60;2.40;;;22.50;99.90;;;;;;5049345;28;20829;-77
2023/06/12 08:04:42;;;;;;;2.65;2.45;;;22.60;99.90;;;;;;5052874;28;20202;-78
2023/06/12 08:07:12;;;;;;;2.45;2.17;;;22.70;99.90;;;;;;5054634;28;20214;-77
2023/06/12 08:09:40;;;;;;;2.60;2.40;;;22.80;99.90;;;;;;5057568;28;20210;-78
2023/06/12 08:12:10;;;;;;;2.63;2.42;;;22.80;99.90;;;;;;5049683;28;20202;-77
2023/06/12 08:14:38;;;;;;;5.00;2.40;;;22.80;99.90;;;;;;5052384;28;20215;-79
2023/06/12 08:17:04;;;;;;;2.47;2.30;;;22.80;99.90;;;;;;5051114;28;20963;-78
2023/06/12 08:19:34;;;;;;;2.30;2.20;;;22.70;99.90;;;;;;5053686;28;20728;-77
2023/06/12 08:22:01;;;;;;;2.65;2.45;;;22.90;99.90;;;;;;5052748;28;20873;-78
2023/06/12 08:24:30;;;;;;;2.45;2.25;;;23.00;99.90;;;;;;5052581;28;20195;-78
2023/06/12 08:26:58;;;;;;;2.40;2.20;;;23.20;99.90;;;;;;5051514;28;20653;-78
2023/06/12 08:29:25;;;;;;;2.58;2.13;;;23.30;99.90;;;;;;5056051;28;20602;-78
2023/06/12 08:31:52;;;;;;;2.00;1.90;;;23.40;99.90;;;;;;5051419;28;20190;-76
2023/06/12 08:34:19;;;;;;;2.22;2.13;;;23.50;99.90;;;;;;5056982;28;21136;-77
2023/06/12 08:36:46;;;;;;;2.70;2.50;;;23.70;99.90;;;;;;5049492;28;20260;-78
2023/06/12 08:39:14;;;;;;;2.17;2.00;;;23.80;99.90;;;;;;5048374;28;20861;-77
2023/06/12 08:41:52;;;;;;;2.00;1.90;;;23.80;99.90;;;;;;5049161;28;20198;-78
2023/06/12 08:44:21;;;;;;;2.17;2.08;;;23.80;99.90;;;;;;5050588;28;20205;-77
2023/06/12 08:46:50;;;;;;;2.10;2.00;;;24.00;99.90;;;;;;5051883;28;20301;-76
2023/06/12 08:49:17;;;;;;;2.60;2.20;;;24.00;99.90;;;;;;5043660;28;20263;-76
2023/06/12 08:51:45;;;;;;;2.60;2.20;;;23.90;99.90;;;;;;5050846;28;20238;-77
2023/06/12 08:54:12;;;;;;;2.47;2.28;;;23.90;99.90;;;;;;5051496;28;20236;-77
2023/06/12 08:56:45;;;;;;;2.13;1.92;;;24.00;99.90;;;;;;5048221;28;20740;-77
2023/06/12 08:59:12;;;;;;;2.17;1.98;;;24.10;99.90;;;;;;5050341;28;20418;-77
2023/06/12 09:01:40;;;;;;;2.05;1.95;;;24.10;99.90;;;;;;5052697;28;20584;-77
2023/06/12 09:04:10;;;;;;;2.20;2.10;;;24.30;99.90;;;;;;5046069;28;20191;-77
2023/06/12 09:06:38;;;;;;;3.22;2.05;;;24.40;99.90;;;;;;5050922;28;20237;-77
2023/06/12 09:09:05;;;;;;;2.75;2.25;;;24.40;99.90;;;;;;5053352;28;20234;-77
2023/06/12 09:11:36;;;;;;;2.20;2.10;;;24.40;99.90;;;;;;5053162;28;20289;-77
2023/06/12 09:14:05;;;;;;;2.97;2.33;;;24.30;99.90;;;;;;5052455;28;20830;-77
2023/06/12 09:16:32;;;;;;;3.35;2.35;;;24.20;99.90;;;;;;5047087;28;20257;-77
2023/06/12 09:18:59;;;;;;;2.08;1.98;;;24.20;99.90;;;;;;5047590;28;20194;-77
2023/06/12 09:21:26;;;;;;;2.40;2.20;;;24.30;99.90;;;;;;5049145;28;20229;-77
2023/06/12 09:23:57;;;;;;;2.50;2.30;;;24.30;99.90;;;;;;5050076;28;20299;-77
2023/06/12 09:26:24;;;;;;;2.40;2.20;;;24.40;99.90;;;;;;5047181;28;20226;-78
2023/06/12 09:28:52;;;;;;;3.05;2.60;;;24.60;99.90;;;;;;5051192;28;20211;-78
2023/06/12 09:31:21;;;;;;;2.85;2.50;;;24.80;99.90;;;;;;5048962;28;20210;-76
2023/06/12 09:33:51;;;;;;;3.05;2.80;;;24.90;99.90;;;;;;5050909;28;20226;-77
2023/06/12 09:36:20;;;;;;;3.72;2.58;;;25.00;99.90;;;;;;5049133;28;20794;-76
2023/06/12 09:38:49;;;;;;;3.33;2.70;;;24.90;99.90;;;;;;5050862;28;20465;-76
2023/06/12 09:41:16;;;;;;;3.03;2.72;;;24.70;99.90;;;;;;5049736;28;20205;-76
2023/06/12 09:43:43;;;;;;;2.95;2.67;;;24.70;99.90;;;;;;5049889;28;20670;-77
2023/06/12 09:46:10;;;;;;;2.90;2.70;;;24.80;99.90;;;;;;5038143;28;20304;-76
2023/06/12 09:48:40;;;;;;;4.13;2.65;;;25.00;99.90;;;;;;5045314;28;20281;-76
2023/06/12 09:51:08;;;;;;;2.60;2.40;;;25.30;99.90;;;;;;5044234;28;20421;-77
2023/06/12 09:53:38;;;;;;;2.10;1.90;;;25.70;99.90;;;;;;5048570;28;20323;-76
2023/06/12 09:56:07;;;;;;;2.38;2.17;;;26.10;99.90;;;;;;5048506;28;20450;-76
2023/06/12 09:58:37;;;;;;;2.30;2.20;;;26.30;99.90;;;;;;5049279;28;20199;-76
2023/06/12 10:01:06;;;;;;;2.80;2.60;;;26.30;99.90;;;;;;5050026;28;20829;-75
2023/06/12 10:03:37;;;;;;;3.90;2.58;;;26.20;99.90;;;;;;5056027;28;20696;-78
2023/06/12 10:06:07;;;;;;;2.30;2.10;;;26.00;99.90;;;;;;5054593;28;20248;-77
2023/06/12 10:08:35;;;;;;;2.63;2.42;;;26.10;99.90;;;;;;5055774;28;20294;-77
2023/06/12 10:11:04;;;;;;;3.00;2.80;;;26.10;99.90;;;;;;5053727;28;20514;-76
2023/06/12 10:13:31;;;;;;;2.80;2.60;;;26.10;99.90;;;;;;5050776;28;20263;-76
2023/06/12 10:15:59;;;;;;;3.50;2.72;;;26.00;99.90;;;;;;5049437;28;20289;-76
2023/06/12 10:18:28;;;;;;;2.92;2.72;;;26.10;99.90;;;;;;5056930;28;20229;-77
2023/06/12 10:20:56;;;;;;;2.42;2.22;;;26.10;99.90;;;;;;5055168;28;20600;-77
2023/06/12 10:23:25;;;;;;;2.80;2.60;;;26.10;99.90;;;;;;5044826;28;20367;-79
2023/06/12 10:25:54;;;;;;;2.78;2.58;;;26.10;99.90;;;;;;5049649;28;20709;-78
2023/06/12 10:28:21;;;;;;;2.83;2.55;;;26.10;99.90;;;;;;5045706;28;20203;-77
2023/06/12 10:31:11;;;;;;;2.67;2.47;;;26.10;99.90;;;;;;5051513;28;20225;-77
2023/06/12 10:33:38;;;;;;;2.70;2.50;;;26.20;99.90;;;;;;5054920;28;20212;-76
2023/06/12 10:36:13;;;;;;;4.25;2.40;;;26.30;99.90;;;;;;5050986;28;20207;-77
2023/06/12 10:38:48;;;;;;;2.67;2.50;;;26.30;99.90;;;;;;5052607;28;20222;-78
2023/06/12 10:41:31;;;;;;;2.83;2.15;;;26.30;99.90;;;;;;5050312;28;20296;-77
2023/06/12 10:43:58;;;;;;;2.38;2.28;;;26.50;99.90;;;;;;5053927;28;20217;-76
2023/06/12 10:46:42;;;;;;;2.70;2.50;;;26.70;99.90;;;;;;5044931;28;20313;-78
2023/06/12 10:49:09;;;;;;;2.40;2.20;;;26.80;99.90;;;;;;5048186;28;20302;-77
2023/06/12 10:51:36;;;;;;;2.60;2.40;;;26.90;99.90;;;;;;5050152;28;20375;-76
2023/06/12 10:54:15;;;;;;;2.40;2.28;;;26.90;99.90;;;;;;5047638;28;20217;-77
2023/06/12 10:56:55;;;;;;;2.42;2.22;;;27.10;99.90;;;;;;5049579;28;20223;-76
2023/06/12 10:59:30;;;;;;;2.40;2.20;;;27.20;99.90;;;;;;5049960;28;20297;-76
2023/06/12 11:01:57;;;;;;;2.28;1.88;;;27.30;99.90;;;;;;5049131;28;20226;-76
2023/06/12 11:04:25;;;;;;;1.80;1.70;;;27.30;99.90;;;;;;5047297;28;20283;-77
2023/06/12 11:06:52;;;;;;;2.03;1.92;;;27.40;99.90;;;;;;5050148;28;20284;-76
2023/06/12 11:09:21;;;;;;;2.72;2.53;;;27.40;99.90;;;;;;5050307;28;20299;-76
2023/06/12 11:11:51;;;;;;;2.28;2.08;;;27.70;99.90;;;;;;5050998;28;20298;-77
2023/06/12 11:14:18;;;;;;;2.20;2.10;;;27.80;99.90;;;;;;5049014;28;20739;-77
2023/06/12 11:16:46;;;;;;;2.50;2.30;;;27.80;99.90;;;;;;5047772;28;20322;-76
2023/06/12 11:19:13;;;;;;;2.13;2.03;;;27.80;99.90;;;;;;5049297;28;20267;-77
2023/06/12 11:21:41;;;;;;;2.00;1.90;;;27.90;99.90;;;;;;5054932;28;20569;-78
2023/06/12 11:24:10;;;;;;;2.45;2.25;;;28.00;99.90;;;;;;5049416;28;20786;-77
2023/06/12 11:26:39;;;;;;;3.58;2.17;;;28.10;99.90;;;;;;5048534;28;20250;-77
2023/06/12 11:29:16;;;;;;;2.30;2.20;;;28.10;99.90;;;;;;5049308;28;20283;-76
2023/06/12 11:31:47;;;;;;;2.30;2.10;;;28.00;99.90;;;;;;5047697;28;20297;-77
2023/06/12 11:34:14;;;;;;;1.92;1.73;;;27.90;99.90;;;;;;5047869;28;20686;-77
2023/06/12 11:36:41;;;;;;;2.38;1.90;;;28.00;99.90;;;;;;5047775;28;20252;-77
2023/06/12 11:39:18;;;;;;;2.00;1.90;;;28.00;99.90;;;;;;5053172;28;20198;-78
2023/06/12 11:41:49;;;;;;;2.40;2.20;;;28.00;99.90;;;;;;5045091;28;20202;-77
2023/06/12 11:44:16;;;;;;;2.47;2.10;;;28.10;99.90;;;;;;5049675;28;20829;-75
2023/06/12 11:46:44;;;;;;;2.38;2.17;;;28.10;99.90;;;;;;5047919;28;20232;-77
2023/06/12 11:49:13;;;;;;;3.70;1.85;;;28.10;99.90;;;;;;5049187;28;20297;-77
2023/06/12 11:51:41;;;;;;;2.47;2.10;;;28.10;99.90;;;;;;5046951;28;20205;-76
2023/06/12 11:54:11;;;;;;;2.13;2.00;;;28.10;99.90;;;;;;5044607;28;20265;-76
2023/06/12 11:56:41;;;;;;;2.65;1.90;;;28.00;99.90;;;;;;5048329;28;20754;-76
2023/06/12 11:59:10;;;;;;;1.92;1.83;;;28.00;99.90;;;;;;5046655;28;20209;-76
2023/06/12 12:01:45;;;;;;;1.95;1.85;;;28.10;99.90;;;;;;5047288;28;20910;-77
2023/06/12 12:04:15;;;;;;;2.10;2.00;;;28.10;99.90;;;;;;5050223;28;20372;-76
2023/06/12 12:06:49;;;;;;;2.00;1.90;;;28.20;99.90;;;;;;5048896;28;20949;-77
2023/06/12 12:09:16;;;;;;;2.00;1.90;;;28.30;99.90;;;;;;5050764;28;20281;-77
2023/06/12 12:11:43;;;;;;;2.40;1.90;;;28.40;99.90;;;;;;5050151;28;20281;-76
2023/06/12 12:14:11;;;;;;;1.70;1.60;;;28.50;99.90;;;;;;5051182;28;20255;-76
2023/06/12 12:16:42;;;;;;;1.80;1.70;;;28.50;99.90;;;;;;5047828;28;20309;-76
2023/06/12 12:19:16;;;;;;;2.65;1.90;;;28.50;99.90;;;;;;5058748;28;20218;-77
2023/06/12 12:21:45;;;;;;;1.90;1.80;;;28.60;99.90;;;;;;5050906;28;20234;-76
2023/06/12 12:24:12;;;;;;;2.33;2.13;;;28.70;99.90;;;;;;5051533;28;20202;-77
2023/06/12 12:26:42;;;;;;;1.77;1.63;;;28.70;99.90;;;;;;5051685;28;20222;-77
2023/06/12 12:29:10;;;;;;;2.03;1.83;;;28.80;99.90;;;;;;5050367;28;20200;-77
2023/06/12 12:31:38;;;;;;;1.67;1.58;;;28.80;99.90;;;;;;5048252;28;20291;-77
2023/06/12 12:34:05;;;;;;;2.72;1.75;;;28.90;99.90;;;;;;5047882;28;20213;-76
2023/06/12 12:36:32;;;;;;;2.00;1.80;;;28.80;99.90;;;;;;5042370;28;20222;-76
2023/06/12 12:38:58;;;;;;;2.42;2.22;;;28.80;99.90;;;;;;5052505;28;20263;-77
2023/06/12 12:41:26;;;;;;;2.10;2.00;;;28.80;99.90;;;;;;5049846;28;20241;-76
2023/06/12 12:43:53;;;;;;;2.10;1.90;;;28.90;99.90;;;;;;5049644;28;20344;-77
2023/06/12 12:46:22;;;;;;;1.90;1.80;;;28.90;99.90;;;;;;5047412;28;20210;-76
2023/06/12 12:48:51;;;;;;;2.03;1.80;;;28.90;99.90;;;;;;5052281;28;20201;-76
2023/06/12 12:51:18;;;;;;;4.25;2.00;;;29.00;99.90;;;;;;5051567;28;20312;-76
2023/06/12 12:53:46;;;;;;;2.00;1.90;;;29.00;99.90;;;;;;5045751;28;20280;-77
2023/06/12 12:56:14;;;;;;;1.95;1.85;;;29.00;99.90;;;;;;5052765;28;20953;-77